Skip Navigation LinksHome page > Weather > Current weather Skip Navigation Links

Current Weather

Alert, Nunavut

For information only: do not use for flight planning or navigation.
Latest weather
Observation time Thursday, April 17, 2014 7:00 PM EDT
Local time Thursday, April 17, 2014 8:13 PM EDT
Flight conditions Visual Meteorological Conditions
Winds
Wind direction South-Southwest (200°)
Wind speed 5 mph
Visibility 15 mi.
Sky condition
Ceiling 24,000 ft. broken clouds
Cloud layer few clouds 3,000 ft.
Cloud layer broken clouds 24,000 ft.
Temperature -8°F
Dewpoint -13°F
Altimeter 29.60 in.Hg
Derived measurements
Relative humidity 76%
Wind chill -19°F
Density altitude -4363 ft.
Sea-level pressure 29.61 in.Hg
METAR CYLT 172300Z 20004KT 15SM FEW030 BKN240 M22/M25 A2960 RMK SC2CI1 JBI 0.35 SLP027

Settings

Location code

InnerDrive.Weather 4.0.4869.0 Release CLR 4.0.30319.18449
Copyright ©2013 Inner Drive Technology. All rights reserved. Portions Copyright ©1986-2013 David Braverman.

Find weather

Site navigation


Skip Navigation Links

Place info

Page info

PayPal - The safer, easier way to pay online!

Return home.

Copyright ©2014 Inner Drive Technology. Purveyors of fine, hand-crafted computer software. Page printed 2014-04-18T00:13:02 UTC.